Time;durP1;ratioP1;P1;durP2;ratioP2;P2;SDS_P1;SDS_P2;PMS_P1;PMS_P2;Temp;Humidity;BMP_temperature;BMP_pressure;BME280_temperature;BME280_humidity;BME280_pressure;Samples;Min_cycle;Max_cycle;Signal;HPM_P1;HPM_P2
2021/09/06 00:01:05;;;;;;;5.37;4.93;;;18.50;32.60;;;;;;10478551;28;20223;-74
2021/09/06 00:06:09;;;;;;;7.87;6.30;;;18.40;32.00;;;;;;10478158;28;20216;-74
2021/09/06 00:11:13;;;;;;;7.17;6.47;;;18.40;32.30;;;;;;10477507;28;20228;-74
2021/09/06 00:16:17;;;;;;;6.53;5.93;;;18.30;32.80;;;;;;10480046;28;20393;-74
2021/09/06 00:21:20;;;;;;;5.93;5.43;;;18.30;32.40;;;;;;10479631;28;20274;-74
2021/09/06 00:26:25;;;;;;;6.43;5.90;;;18.20;32.40;;;;;;10480292;28;20228;-74
2021/09/06 00:31:28;;;;;;;6.97;6.37;;;18.10;32.70;;;;;;10475781;28;20234;-74
2021/09/06 00:36:31;;;;;;;5.53;5.03;;;18.10;32.50;;;;;;10478537;28;20232;-74
2021/09/06 00:41:36;;;;;;;5.70;5.20;;;18.00;32.50;;;;;;10479589;28;20234;-74
2021/09/06 00:46:45;;;;;;;6.83;6.30;;;18.00;33.10;;;;;;10475971;28;20673;-73
2021/09/06 00:51:49;;;;;;;6.43;5.83;;;17.90;32.70;;;;;;10478771;28;20315;-74
2021/09/06 00:56:54;;;;;;;6.67;6.07;;;17.90;32.70;;;;;;10486715;28;20219;-74
2021/09/06 01:01:57;;;;;;;6.50;5.90;;;17.80;33.40;;;;;;10485670;28;20224;-74
2021/09/06 01:07:01;;;;;;;7.47;6.53;;;17.80;32.80;;;;;;10487487;28;20223;-72
2021/09/06 01:12:07;;;;;;;6.43;5.87;;;17.70;33.10;;;;;;10483084;28;20227;-74
2021/09/06 01:17:11;;;;;;;7.17;6.50;;;17.60;33.90;;;;;;10487563;28;20230;-74
2021/09/06 01:22:14;;;;;;;6.77;6.10;;;17.50;33.20;;;;;;10484698;28;20232;-74
2021/09/06 01:27:19;;;;;;;6.80;6.27;;;17.30;33.20;;;;;;10486593;28;20221;-74
2021/09/06 01:32:22;;;;;;;6.43;5.90;;;17.20;34.00;;;;;;10486377;28;20630;-74
2021/09/06 01:37:25;;;;;;;8.60;5.97;;;17.10;34.00;;;;;;10483843;28;20228;-74
2021/09/06 01:42:30;;;;;;;5.90;5.40;;;17.00;33.90;;;;;;10484962;28;20228;-74
2021/09/06 01:47:33;;;;;;;6.57;5.97;;;16.90;33.80;;;;;;10486436;28;20235;-74
2021/09/06 01:52:37;;;;;;;7.57;6.20;;;16.90;33.80;;;;;;10482284;28;20602;-74
2021/09/06 01:57:41;;;;;;;6.57;5.90;;;16.90;33.80;;;;;;10485358;28;20251;-73
2021/09/06 02:02:44;;;;;;;6.80;5.90;;;16.90;34.10;;;;;;10480659;28;20233;-74
2021/09/06 02:07:48;;;;;;;6.10;5.50;;;16.80;33.70;;;;;;10482923;28;20440;-74
2021/09/06 02:12:52;;;;;;;5.40;4.90;;;16.70;33.60;;;;;;10482782;28;20756;-74
2021/09/06 02:17:56;;;;;;;6.17;5.57;;;16.60;34.00;;;;;;10485212;28;20232;-73
2021/09/06 02:22:59;;;;;;;6.73;6.10;;;16.60;33.70;;;;;;10482468;28;20239;-74
2021/09/06 02:28:04;;;;;;;6.00;5.40;;;16.50;33.90;;;;;;10483809;28;20224;-73
2021/09/06 02:33:08;;;;;;;5.93;5.43;;;16.40;34.40;;;;;;10483784;28;20224;-74
2021/09/06 02:38:11;;;;;;;5.93;5.33;;;16.30;34.40;;;;;;10483527;28;20229;-74
2021/09/06 02:43:16;;;;;;;5.20;4.80;;;16.30;34.10;;;;;;10483667;28;20224;-74
2021/09/06 02:48:19;;;;;;;5.40;4.93;;;16.30;34.60;;;;;;10482780;28;20601;-74
2021/09/06 02:53:22;;;;;;;5.30;4.73;;;16.30;34.30;;;;;;10481410;28;20236;-73
2021/09/06 02:58:27;;;;;;;5.10;4.70;;;16.30;34.30;;;;;;10483549;28;20231;-74
2021/09/06 03:03:30;;;;;;;4.37;3.97;;;16.30;34.50;;;;;;10480147;28;20239;-74
2021/09/06 03:08:34;;;;;;;5.73;5.23;;;16.30;34.10;;;;;;10481148;28;20324;-74
2021/09/06 03:13:38;;;;;;;5.17;4.77;;;16.30;34.10;;;;;;10483423;28;20231;-74
2021/09/06 03:18:41;;;;;;;5.57;5.17;;;16.30;34.50;;;;;;10481298;28;20227;-74
2021/09/06 03:23:45;;;;;;;5.53;4.90;;;16.20;34.10;;;;;;10481913;28;20239;-74
2021/09/06 03:28:49;;;;;;;6.20;4.50;;;16.20;34.10;;;;;;10481600;28;20220;-74
2021/09/06 03:33:52;;;;;;;4.83;4.33;;;16.10;34.60;;;;;;10482165;28;20235;-74
2021/09/06 03:38:56;;;;;;;5.37;4.87;;;16.10;34.40;;;;;;10481022;28;20216;-74
2021/09/06 03:44:00;;;;;;;5.77;5.30;;;16.10;34.40;;;;;;10480195;28;20219;-74
2021/09/06 03:49:05;;;;;;;5.63;5.10;;;16.10;34.70;;;;;;10481112;28;20220;-75
2021/09/06 03:54:08;;;;;;;4.77;4.40;;;16.10;34.40;;;;;;10479472;28;20699;-75
2021/09/06 03:59:12;;;;;;;5.10;4.57;;;16.10;34.40;;;;;;10480621;28;20704;-75
2021/09/06 04:04:16;;;;;;;6.00;5.30;;;16.10;34.80;;;;;;10477533;28;20220;-75
2021/09/06 04:09:19;;;;;;;6.40;5.43;;;16.10;34.50;;;;;;10478527;28;20228;-74
2021/09/06 04:14:26;;;;;;;5.87;5.30;;;16.10;34.60;;;;;;10480719;28;20239;-74
2021/09/06 04:19:31;;;;;;;6.93;6.33;;;16.00;35.00;;;;;;10483478;28;20230;-78
2021/09/06 04:24:34;;;;;;;7.23;6.57;;;16.00;34.70;;;;;;10485338;28;20242;-78
2021/09/06 04:29:42;;;;;;;7.07;5.77;;;16.00;34.70;;;;;;10486684;28;20251;-78
2021/09/06 04:34:45;;;;;;;6.20;5.60;;;15.90;35.00;;;;;;10487445;28;20245;-78
2021/09/06 04:39:48;;;;;;;7.27;5.97;;;15.90;34.80;;;;;;10485526;28;20216;-78
2021/09/06 04:44:52;;;;;;;7.00;6.30;;;15.80;34.80;;;;;;10489870;28;20219;-79
2021/09/06 04:49:56;;;;;;;5.77;5.20;;;15.80;35.20;;;;;;10475353;28;20226;-72
2021/09/06 04:55:03;;;;;;;5.60;5.10;;;15.80;34.70;;;;;;10483264;28;20685;-78
2021/09/06 05:00:10;;;;;;;5.70;5.20;;;15.80;34.80;;;;;;10476271;28;20232;-78
2021/09/06 05:05:13;;;;;;;5.90;5.00;;;15.80;35.40;;;;;;10484764;28;20787;-80
2021/09/06 05:10:16;;;;;;;6.37;5.10;;;15.70;34.80;;;;;;10487233;28;20256;-71
2021/09/06 05:15:21;;;;;;;5.57;5.07;;;15.70;35.00;;;;;;10478022;28;20239;-74
2021/09/06 05:20:24;;;;;;;5.17;4.77;;;15.70;35.30;;;;;;10484882;28;20229;-78
2021/09/06 05:25:27;;;;;;;5.40;4.90;;;15.60;35.10;;;;;;10490428;28;20232;-79
2021/09/06 05:30:32;;;;;;;6.30;5.70;;;15.60;35.20;;;;;;10490438;28;20236;-78
2021/09/06 05:35:35;;;;;;;5.40;4.90;;;15.70;35.80;;;;;;10486938;28;20224;-78
2021/09/06 05:40:39;;;;;;;5.87;5.33;;;15.60;35.40;;;;;;10491621;28;20579;-78
2021/09/06 05:45:43;;;;;;;7.23;5.70;;;15.70;35.60;;;;;;10488843;28;20928;-75
2021/09/06 05:50:46;;;;;;;5.80;5.20;;;15.70;36.30;;;;;;10492447;28;20227;-77
2021/09/06 05:55:50;;;;;;;8.50;5.97;;;15.70;37.00;;;;;;10487393;28;20225;-78
2021/09/06 06:00:54;;;;;;;6.20;5.60;;;15.80;36.90;;;;;;10487482;28;20224;-78
2021/09/06 06:05:58;;;;;;;7.40;5.67;;;15.90;37.20;;;;;;10484981;28;20227;-78
2021/09/06 06:11:01;;;;;;;8.00;5.97;;;16.00;36.80;;;;;;10482429;28;20259;-79
2021/09/06 06:16:06;;;;;;;11.77;6.73;;;16.00;36.80;;;;;;10488686;28;20618;-78
2021/09/06 06:21:09;;;;;;;8.83;7.33;;;16.10;37.50;;;;;;10484440;28;20220;-78
2021/09/06 06:26:12;;;;;;;8.33;7.13;;;16.10;37.20;;;;;;10483405;28;20220;-78
2021/09/06 06:31:17;;;;;;;9.50;7.47;;;16.10;37.30;;;;;;10485767;28;20228;-77
2021/09/06 06:36:20;;;;;;;10.80;9.80;;;16.20;38.00;;;;;;10480532;28;20239;-78
2021/09/06 06:41:45;;;;;;;9.80;8.80;;;16.30;38.00;;;;;;10492320;28;20274;-78
2021/09/06 06:46:49;;;;;;;9.90;8.90;;;16.40;38.40;;;;;;10488139;28;20227;-78
2021/09/06 06:51:53;;;;;;;10.93;9.83;;;16.50;39.40;;;;;;10488667;28;20227;-78
2021/09/06 06:56:56;;;;;;;12.00;10.90;;;16.60;38.90;;;;;;10492917;28;20227;-78
2021/09/06 07:02:01;;;;;;;12.37;11.10;;;16.60;39.00;;;;;;10484189;28;20239;-78
2021/09/06 07:07:05;;;;;;;12.47;11.27;;;16.70;40.00;;;;;;10489248;28;20319;-78
2021/09/06 07:12:08;;;;;;;12.53;11.33;;;16.90;39.60;;;;;;10487313;28;20232;-78
2021/09/06 07:17:13;;;;;;;13.37;12.07;;;17.00;40.00;;;;;;10483813;28;21033;-78
2021/09/06 07:22:16;;;;;;;14.03;12.73;;;17.10;41.00;;;;;;10484644;28;20224;-78
2021/09/06 07:27:19;;;;;;;13.30;11.97;;;17.20;40.10;;;;;;10486969;28;20228;-78
2021/09/06 07:32:24;;;;;;;13.90;12.30;;;17.40;40.30;;;;;;10484312;28;20232;-79
2021/09/06 07:37:27;;;;;;;12.10;11.10;;;17.60;40.90;;;;;;10481314;28;20224;-79
2021/09/06 07:42:30;;;;;;;13.37;11.97;;;17.70;40.30;;;;;;10485710;28;20228;-78
2021/09/06 07:47:35;;;;;;;13.37;12.07;;;17.90;40.50;;;;;;10485063;28;21110;-79
2021/09/06 07:52:39;;;;;;;11.57;10.33;;;18.10;41.20;;;;;;10484898;28;20711;-80
2021/09/06 07:57:42;;;;;;;12.47;11.27;;;18.30;40.70;;;;;;10482391;28;20375;-79
2021/09/06 08:02:49;;;;;;;13.17;11.77;;;18.60;40.90;;;;;;10502900;22;20239;-79
2021/09/06 08:07:54;;;;;;;12.97;11.80;;;18.90;41.10;;;;;;10481108;28;20228;-79
2021/09/06 08:12:57;;;;;;;12.67;11.57;;;19.20;40.80;;;;;;10506062;28;20261;-79
2021/09/06 08:18:03;;;;;;;11.57;10.40;;;19.50;40.80;;;;;;10519197;28;20230;-79
2021/09/06 08:23:06;;;;;;;10.13;9.10;;;19.80;40.90;;;;;;10520029;28;20889;-78
2021/09/06 08:28:10;;;;;;;9.93;9.03;;;20.10;40.30;;;;;;10521712;28;20230;-79
2021/09/06 08:33:14;;;;;;;10.00;9.00;;;20.40;40.10;;;;;;10521578;28;20228;-79
2021/09/06 08:38:18;;;;;;;9.53;8.67;;;20.80;39.40;;;;;;10522294;28;20604;-78
2021/09/06 08:43:21;;;;;;;9.67;8.47;;;21.10;39.00;;;;;;10519022;28;20314;-77
2021/09/06 08:48:26;;;;;;;10.93;9.93;;;21.50;39.00;;;;;;10513170;28;20232;-77
2021/09/06 08:53:29;;;;;;;10.50;9.53;;;21.80;38.70;;;;;;10516874;28;20237;-77
2021/09/06 08:58:33;;;;;;;10.70;9.70;;;22.00;38.30;;;;;;10520024;28;20711;-79
2021/09/06 09:03:37;;;;;;;10.03;9.10;;;22.30;38.50;;;;;;10552037;28;20707;-78
2021/09/06 09:08:41;;;;;;;9.17;8.27;;;22.50;37.80;;;;;;10561998;28;20218;-77
2021/09/06 09:13:44;;;;;;;10.07;9.17;;;22.80;38.30;;;;;;10562698;28;20230;-78
2021/09/06 09:18:49;;;;;;;9.23;8.40;;;23.10;37.50;;;;;;10570860;27;20227;-79
2021/09/06 09:23:53;;;;;;;8.33;7.60;;;23.30;37.00;;;;;;10564115;27;20233;-79
2021/09/06 09:28:57;;;;;;;8.30;7.50;;;23.60;36.70;;;;;;10566432;28;20329;-72
2021/09/06 09:34:02;;;;;;;8.23;7.53;;;23.90;36.30;;;;;;10562055;27;20241;-72
2021/09/06 09:39:10;;;;;;;8.33;7.40;;;24.20;35.50;;;;;;10562598;27;20215;-71
2021/09/06 09:44:16;;;;;;;8.43;7.73;;;24.50;34.10;;;;;;10564347;28;20234;-71
2021/09/06 09:49:22;;;;;;;8.07;7.27;;;24.80;34.80;;;;;;10564931;28;20452;-72
2021/09/06 09:54:25;;;;;;;7.97;7.30;;;25.00;33.60;;;;;;10563597;27;20238;-72
2021/09/06 09:59:29;;;;;;;8.30;7.50;;;25.30;33.40;;;;;;10562580;27;20238;-78
2021/09/06 10:04:40;;;;;;;8.10;7.40;;;25.40;33.30;;;;;;10565271;27;20250;-72
2021/09/06 10:09:45;;;;;;;7.80;7.10;;;25.70;31.00;;;;;;10564636;27;20277;-72
2021/09/06 10:14:51;;;;;;;7.93;7.23;;;25.80;31.60;;;;;;10564197;27;20222;-72
2021/09/06 10:19:56;;;;;;;8.00;7.30;;;26.00;31.10;;;;;;10561947;27;20221;-72
2021/09/06 10:25:03;;;;;;;8.20;7.60;;;26.20;30.80;;;;;;10564456;27;20242;-78
2021/09/06 10:30:09;;;;;;;8.13;7.43;;;26.40;29.90;;;;;;10566514;27;20215;-78
2021/09/06 10:35:22;;;;;;;8.40;7.70;;;26.50;29.90;;;;;;10561304;28;20227;-72
2021/09/06 10:40:29;;;;;;;8.00;7.30;;;26.70;29.60;;;;;;10563521;27;20564;-72
2021/09/06 10:45:33;;;;;;;8.23;7.50;;;26.80;28.70;;;;;;10561134;27;20714;-72
2021/09/06 10:50:38;;;;;;;7.87;7.07;;;27.00;29.70;;;;;;10561497;27;20223;-72
2021/09/06 10:55:46;;;;;;;7.37;6.77;;;27.10;28.50;;;;;;10563449;28;20243;-72
2021/09/06 11:00:52;;;;;;;8.00;7.30;;;27.20;28.10;;;;;;10561476;28;20219;-72
2021/09/06 11:05:58;;;;;;;7.70;7.10;;;27.40;28.80;;;;;;10560808;28;20314;-72
2021/09/06 11:11:05;;;;;;;7.80;7.20;;;27.40;27.60;;;;;;10563147;28;20234;-72
2021/09/06 11:16:09;;;;;;;7.80;7.10;;;27.50;27.50;;;;;;10556555;28;20223;-72
2021/09/06 11:21:15;;;;;;;8.03;7.33;;;27.60;27.80;;;;;;10562770;27;20719;-72
2021/09/06 11:26:31;;;;;;;7.60;6.87;;;27.60;27.10;;;;;;10560094;28;20714;-72
2021/09/06 11:31:35;;;;;;;7.97;7.27;;;27.60;26.00;;;;;;10559463;28;20283;-72
2021/09/06 11:36:40;;;;;;;8.00;7.30;;;27.70;27.50;;;;;;10560076;27;20670;-72
2021/09/06 11:41:44;;;;;;;8.20;7.50;;;27.70;26.90;;;;;;10556765;27;20782;-71
2021/09/06 11:46:47;;;;;;;7.43;6.83;;;27.70;26.80;;;;;;10558360;27;20227;-71
2021/09/06 11:51:52;;;;;;;7.93;7.33;;;27.70;26.90;;;;;;10561571;28;20227;-71
2021/09/06 11:56:59;;;;;;;7.90;7.10;;;27.70;26.30;;;;;;10560845;28;20226;-71
2021/09/06 12:02:11;;;;;;;7.87;7.27;;;27.70;26.00;;;;;;10555420;28;20302;-72
2021/09/06 12:07:21;;;;;;;8.27;7.67;;;27.70;26.00;;;;;;10557341;28;20222;-71
2021/09/06 12:12:25;;;;;;;7.70;7.10;;;27.80;25.60;;;;;;10555966;28;20628;-71
2021/09/06 12:17:35;;;;;;;7.77;7.17;;;27.80;26.40;;;;;;10560109;28;20312;-71
2021/09/06 12:22:40;;;;;;;7.40;6.80;;;27.80;24.90;;;;;;10559286;27;20234;-71
2021/09/06 12:27:43;;;;;;;8.63;7.30;;;27.90;25.20;;;;;;10559296;27;20330;-78
2021/09/06 12:32:46;;;;;;;9.50;6.83;;;27.80;25.80;;;;;;10559795;28;20232;-75
2021/09/06 12:37:52;;;;;;;8.20;7.50;;;27.80;25.50;;;;;;10556844;28;20219;-71
2021/09/06 12:42:55;;;;;;;7.47;6.80;;;27.90;24.80;;;;;;10559544;28;20223;-79
2021/09/06 12:47:58;;;;;;;7.53;6.93;;;27.90;25.30;;;;;;10560121;28;20234;-79
2021/09/06 12:53:03;;;;;;;7.17;6.57;;;27.90;25.40;;;;;;10574821;27;21221;-72
2021/09/06 12:58:12;;;;;;;6.90;6.30;;;27.90;24.30;;;;;;10573163;27;20627;-73
2021/09/06 13:03:15;;;;;;;7.87;7.17;;;27.90;24.50;;;;;;10572350;27;20227;-73
2021/09/06 13:08:20;;;;;;;6.60;6.10;;;27.90;24.60;;;;;;10571825;27;20591;-74
2021/09/06 13:13:23;;;;;;;7.00;6.40;;;27.80;23.40;;;;;;10572750;27;20237;-73
2021/09/06 13:18:28;;;;;;;7.00;6.47;;;27.90;24.00;;;;;;10569959;27;20297;-73
2021/09/06 13:23:36;;;;;;;6.97;6.40;;;27.90;23.90;;;;;;10573372;27;20603;-72
2021/09/06 13:28:39;;;;;;;7.10;6.50;;;28.00;23.50;;;;;;10570822;27;20236;-72
2021/09/06 13:33:42;;;;;;;7.37;6.77;;;28.00;23.80;;;;;;10572547;27;20223;-72
2021/09/06 13:38:47;;;;;;;7.23;6.53;;;28.00;23.70;;;;;;10568525;27;20594;-72
2021/09/06 13:43:50;;;;;;;6.97;6.37;;;28.00;23.00;;;;;;10570816;28;20711;-72
2021/09/06 13:48:55;;;;;;;6.67;6.17;;;27.90;23.20;;;;;;10570204;27;20223;-73
2021/09/06 13:54:00;;;;;;;6.47;5.97;;;28.00;23.30;;;;;;10572026;28;20229;-73
2021/09/06 13:59:03;;;;;;;6.47;5.97;;;28.00;22.80;;;;;;10571519;27;20215;-74
2021/09/06 14:04:07;;;;;;;7.77;5.73;;;28.00;23.10;;;;;;10559067;28;20226;-73
2021/09/06 14:09:11;;;;;;;6.43;5.93;;;28.00;22.90;;;;;;10565505;28;20280;-72
2021/09/06 14:14:15;;;;;;;6.30;5.73;;;28.10;22.20;;;;;;10564378;28;20233;-72
2021/09/06 14:19:18;;;;;;;6.27;5.77;;;28.10;22.60;;;;;;10561855;28;20219;-74
2021/09/06 14:24:23;;;;;;;6.80;6.20;;;28.10;22.70;;;;;;10564908;28;20314;-74
2021/09/06 14:29:26;;;;;;;6.60;6.00;;;28.10;22.20;;;;;;10562999;28;20231;-73
2021/09/06 14:34:29;;;;;;;6.63;6.10;;;28.10;22.50;;;;;;10563639;28;20234;-73
2021/09/06 14:39:34;;;;;;;6.90;6.30;;;28.10;21.90;;;;;;10560844;28;20229;-74
2021/09/06 14:44:37;;;;;;;6.40;5.80;;;28.10;21.80;;;;;;10565082;28;20234;-73
2021/09/06 14:49:40;;;;;;;6.27;5.67;;;28.20;21.90;;;;;;10555990;28;20226;-73
2021/09/06 14:54:45;;;;;;;6.37;5.77;;;28.10;21.70;;;;;;10560844;28;20223;-73
2021/09/06 14:59:48;;;;;;;6.43;5.83;;;28.20;21.00;;;;;;10557725;28;20223;-73
2021/09/06 15:04:52;;;;;;;6.00;5.50;;;28.20;21.30;;;;;;10558514;28;20229;-74
2021/09/06 15:09:56;;;;;;;5.80;5.30;;;28.20;21.20;;;;;;10560550;28;20227;-73
2021/09/06 15:15:00;;;;;;;6.50;6.00;;;28.20;20.50;;;;;;10556376;27;20319;-74
2021/09/06 15:20:04;;;;;;;5.97;5.57;;;28.20;20.80;;;;;;10555166;28;20223;-75
2021/09/06 15:25:09;;;;;;;5.73;5.13;;;28.20;20.50;;;;;;10560566;28;20222;-74
2021/09/06 15:30:54;;;;;;;5.70;5.20;;;28.20;20.20;;;;;;10558558;27;20230;-74
2021/09/06 15:36:04;;;;;;;6.00;5.50;;;28.20;20.20;;;;;;10560880;28;20590;-74
2021/09/06 15:41:10;;;;;;;5.97;5.47;;;28.20;20.00;;;;;;10561693;27;20246;-74
2021/09/06 15:46:18;;;;;;;6.27;5.77;;;28.20;20.20;;;;;;10559960;28;20219;-75
2021/09/06 15:51:22;;;;;;;5.80;5.30;;;28.20;20.50;;;;;;10558779;28;20346;-75
2021/09/06 15:56:27;;;;;;;6.40;5.80;;;28.20;20.60;;;;;;10561484;28;20588;-78
2021/09/06 16:01:30;;;;;;;6.23;5.73;;;28.20;20.20;;;;;;10560759;28;20222;-72
2021/09/06 16:06:33;;;;;;;6.30;5.80;;;28.30;20.90;;;;;;10562670;28;20242;-72
2021/09/06 16:11:39;;;;;;;6.03;5.43;;;28.30;20.80;;;;;;10560096;28;20219;-71
2021/09/06 16:16:42;;;;;;;6.73;6.07;;;28.30;20.50;;;;;;10559650;28;20222;-71
2021/09/06 16:21:45;;;;;;;6.10;5.60;;;28.30;21.20;;;;;;10557825;27;20230;-78
2021/09/06 16:26:50;;;;;;;6.17;5.57;;;28.20;20.80;;;;;;10561918;28;20624;-77
2021/09/06 16:31:53;;;;;;;6.03;5.53;;;28.20;20.30;;;;;;10556642;28;20306;-78
2021/09/06 16:36:56;;;;;;;5.70;5.20;;;28.20;20.90;;;;;;10558875;28;20233;-71
2021/09/06 16:42:01;;;;;;;6.53;5.83;;;28.20;21.40;;;;;;10560512;28;20230;-74
2021/09/06 16:47:05;;;;;;;7.67;6.50;;;28.10;21.40;;;;;;10555387;28;20221;-71
2021/09/06 16:52:08;;;;;;;7.20;6.60;;;28.10;21.40;;;;;;10556997;28;20422;-71
2021/09/06 16:57:12;;;;;;;6.67;5.97;;;28.00;21.40;;;;;;10556242;28;20223;-77
2021/09/06 17:02:16;;;;;;;6.13;5.63;;;27.90;21.70;;;;;;10554853;28;20231;-75
2021/09/06 17:07:20;;;;;;;6.60;6.10;;;27.70;21.90;;;;;;10554893;28;20283;-74
2021/09/06 17:12:25;;;;;;;6.07;5.57;;;27.60;22.20;;;;;;10557963;28;20302;-72
2021/09/06 17:17:29;;;;;;;5.67;5.27;;;27.40;22.40;;;;;;10557745;28;20242;-78
2021/09/06 17:22:32;;;;;;;6.40;5.90;;;27.30;22.50;;;;;;10556214;28;20321;-75
2021/09/06 17:27:37;;;;;;;7.20;6.43;;;27.20;22.80;;;;;;10558808;28;20227;-71
2021/09/06 17:32:42;;;;;;;6.20;5.70;;;27.10;23.40;;;;;;10558731;28;20254;-72
2021/09/06 17:37:46;;;;;;;6.70;6.10;;;26.90;23.60;;;;;;10564008;28;20230;-72
2021/09/06 17:42:52;;;;;;;6.63;5.90;;;26.80;23.80;;;;;;10568986;27;21015;-78
2021/09/06 17:47:57;;;;;;;6.47;5.87;;;26.50;24.20;;;;;;10562854;28;20242;-78
2021/09/06 17:53:02;;;;;;;6.00;5.50;;;26.50;24.20;;;;;;10561689;28;23259;-76
2021/09/06 17:58:08;;;;;;;6.57;5.97;;;26.40;24.40;;;;;;10563705;27;20318;-78
2021/09/06 18:03:12;;;;;;;6.20;5.60;;;26.20;24.80;;;;;;10562228;27;20223;-78
2021/09/06 18:08:15;;;;;;;6.23;5.63;;;26.00;24.50;;;;;;10568236;27;20219;-78
2021/09/06 18:13:20;;;;;;;6.37;5.87;;;25.80;25.30;;;;;;10562338;27;20230;-78
2021/09/06 18:18:23;;;;;;;6.90;6.30;;;25.70;24.90;;;;;;10557394;28;20592;-78
2021/09/06 18:23:29;;;;;;;6.63;6.03;;;25.50;24.60;;;;;;10553878;28;20597;-78
2021/09/06 18:28:34;;;;;;;7.53;6.30;;;25.30;24.70;;;;;;10567212;27;20222;-78
2021/09/06 18:33:37;;;;;;;7.97;6.73;;;25.20;25.00;;;;;;10566410;27;20230;-71
2021/09/06 18:38:41;;;;;;;7.30;6.60;;;25.00;25.00;;;;;;10561487;28;20827;-72
2021/09/06 18:43:45;;;;;;;7.50;6.77;;;24.80;25.20;;;;;;10558209;28;20223;-72
2021/09/06 18:48:49;;;;;;;7.37;6.53;;;24.60;25.40;;;;;;10562554;28;20553;-72
2021/09/06 18:53:52;;;;;;;6.53;6.03;;;24.50;25.40;;;;;;10564112;28;20234;-72
2021/09/06 18:58:57;;;;;;;7.53;6.83;;;24.30;25.50;;;;;;10565161;28;20214;-72
2021/09/06 19:04:01;;;;;;;7.70;7.00;;;24.20;25.90;;;;;;10554239;27;20233;-71
2021/09/06 19:09:05;;;;;;;8.20;7.40;;;24.00;25.80;;;;;;10550625;27;20306;-72
2021/09/06 19:14:14;;;;;;;9.30;7.90;;;23.80;25.90;;;;;;10554448;27;20222;-71
2021/09/06 19:24:41;;;;;;;7.50;6.80;;;23.30;26.40;;;;;;10552210;28;20227;-71
2021/09/06 19:29:46;;;;;;;8.33;7.53;;;23.10;26.30;;;;;;10554314;28;20254;-71
2021/09/06 19:34:50;;;;;;;7.83;6.87;;;22.90;26.90;;;;;;10553149;28;20215;-71
2021/09/06 19:39:53;;;;;;;8.10;7.13;;;22.70;26.70;;;;;;10551350;27;20222;-71
2021/09/06 19:44:57;;;;;;;8.97;8.07;;;22.50;27.00;;;;;;10560122;28;20222;-72
2021/09/06 19:50:03;;;;;;;9.00;8.20;;;22.40;27.00;;;;;;10560964;28;20266;-72
2021/09/06 19:55:10;;;;;;;9.63;8.10;;;22.20;26.80;;;;;;10561570;28;20230;-72
2021/09/06 20:00:16;;;;;;;9.40;8.40;;;21.90;27.20;;;;;;10558076;28;20230;-72
2021/09/06 20:05:21;;;;;;;9.37;8.57;;;21.70;27.80;;;;;;10553670;28;20707;-72
2021/09/06 20:10:26;;;;;;;8.63;7.83;;;21.50;27.70;;;;;;10560182;28;20229;-72
2021/09/06 20:15:31;;;;;;;9.40;8.60;;;21.30;27.70;;;;;;10548563;27;20245;-72
2021/09/06 20:20:35;;;;;;;8.57;7.87;;;21.20;28.30;;;;;;10549444;28;20227;-72
2021/09/06 20:25:38;;;;;;;8.70;7.97;;;21.10;27.90;;;;;;10546445;28;20223;-72
2021/09/06 20:30:43;;;;;;;8.17;7.47;;;21.00;28.20;;;;;;10553422;27;20229;-72
2021/09/06 20:35:46;;;;;;;9.00;8.20;;;20.90;28.70;;;;;;10555067;28;20219;-72
2021/09/06 20:40:49;;;;;;;8.17;7.47;;;20.80;28.30;;;;;;10551325;28;20231;-72
2021/09/06 20:45:54;;;;;;;8.70;7.90;;;20.70;28.60;;;;;;10552039;28;20745;-72
2021/09/06 20:50:57;;;;;;;9.23;8.43;;;20.70;29.10;;;;;;10547815;28;21428;-72
2021/09/06 20:56:01;;;;;;;7.97;7.27;;;20.60;28.80;;;;;;10548288;28;20218;-72
2021/09/06 21:01:05;;;;;;;7.67;7.03;;;20.60;28.80;;;;;;10549388;28;20363;-72
2021/09/06 21:06:14;;;;;;;7.67;6.97;;;20.60;29.10;;;;;;10549302;28;20234;-72
2021/09/06 21:11:17;;;;;;;8.47;7.77;;;20.60;28.90;;;;;;10553814;28;20223;-72
2021/09/06 21:16:22;;;;;;;9.93;8.00;;;20.60;29.00;;;;;;10558149;27;20535;-72
2021/09/06 21:21:26;;;;;;;8.70;7.93;;;20.60;29.30;;;;;;10561777;28;20319;-72
2021/09/06 21:26:29;;;;;;;7.53;6.83;;;20.50;28.90;;;;;;10561926;28;20222;-72
2021/09/06 21:31:34;;;;;;;7.77;6.93;;;20.50;29.00;;;;;;10560950;28;20215;-72
2021/09/06 21:36:37;;;;;;;6.90;6.20;;;20.40;29.30;;;;;;10557932;28;20751;-72
2021/09/06 21:41:41;;;;;;;8.40;7.47;;;20.40;29.00;;;;;;10561386;28;20230;-72
2021/09/06 21:46:45;;;;;;;7.87;7.17;;;20.30;29.10;;;;;;10561323;28;20230;-72
2021/09/06 21:51:49;;;;;;;8.60;7.70;;;20.30;29.50;;;;;;10558908;28;20249;-72
2021/09/06 21:56:52;;;;;;;9.03;8.23;;;20.20;29.30;;;;;;10563580;28;20227;-72
2021/09/06 22:01:57;;;;;;;8.30;7.37;;;20.10;29.40;;;;;;10560447;28;20634;-72
2021/09/06 22:07:01;;;;;;;9.40;8.20;;;20.00;29.60;;;;;;10558357;28;20314;-72
2021/09/06 22:12:05;;;;;;;8.60;7.70;;;19.90;29.40;;;;;;10562433;28;20227;-72
2021/09/06 22:17:09;;;;;;;8.80;8.10;;;19.90;29.60;;;;;;10558916;28;20691;-72
2021/09/06 22:22:13;;;;;;;9.17;8.37;;;19.80;30.60;;;;;;10557874;28;20224;-72
2021/09/06 22:27:16;;;;;;;8.93;8.13;;;19.70;29.80;;;;;;10560508;28;20750;-71
2021/09/06 22:32:21;;;;;;;9.00;8.10;;;19.60;29.90;;;;;;10561233;28;20227;-72
2021/09/06 22:37:24;;;;;;;9.83;7.97;;;19.60;30.20;;;;;;10566571;28;20219;-72
2021/09/06 22:42:28;;;;;;;8.37;7.53;;;19.60;30.00;;;;;;10562456;28;20235;-72
2021/09/06 22:47:32;;;;;;;8.30;7.60;;;19.40;29.90;;;;;;10559647;28;20232;-72
2021/09/06 22:52:35;;;;;;;8.10;7.30;;;19.40;30.20;;;;;;10563752;28;20220;-72
2021/09/06 22:57:39;;;;;;;8.83;8.03;;;19.30;30.00;;;;;;10567052;28;20230;-72
2021/09/06 23:02:43;;;;;;;8.87;7.97;;;19.20;30.10;;;;;;10563848;28;20249;-72
2021/09/06 23:07:47;;;;;;;7.67;7.07;;;19.10;30.50;;;;;;10563918;28;20233;-72
2021/09/06 23:12:50;;;;;;;8.43;7.63;;;19.10;30.30;;;;;;10559694;28;20698;-71
2021/09/06 23:17:55;;;;;;;8.47;7.67;;;19.00;30.50;;;;;;10561345;28;20239;-72
2021/09/06 23:22:58;;;;;;;8.73;7.90;;;18.90;30.90;;;;;;10562501;28;20287;-72
2021/09/06 23:28:02;;;;;;;8.20;7.50;;;18.90;30.50;;;;;;10562035;28;20774;-72
2021/09/06 23:33:06;;;;;;;8.70;7.63;;;18.80;30.60;;;;;;10560603;28;20249;-72
2021/09/06 23:38:10;;;;;;;7.13;6.53;;;18.80;31.30;;;;;;10560628;28;20680;-72
2021/09/06 23:43:13;;;;;;;7.53;6.73;;;18.70;30.60;;;;;;10561130;28;20234;-72
2021/09/06 23:48:18;;;;;;;8.40;7.50;;;18.60;30.80;;;;;;10561469;28;20678;-72
2021/09/06 23:53:22;;;;;;;7.90;7.10;;;18.60;31.50;;;;;;10561427;28;20242;-72
2021/09/06 23:58:25;;;;;;;8.60;7.87;;;18.50;30.90;;;;;;10562663;28;20225;-72
